This is the latest recevied weather packets stored in our database for station/object IW8PDD-13. If no packets are shown the sender has not sent any weather packets the latest 10 day(s).
| Time | Temp. | Humidity | Pressure | Rain* | Wind** | Luminosity | Snow |
|---|---|---|---|---|---|---|---|
| 1777652085 | 16.11° C | 67% | 1016.2 hPa | - | - | - | - |
| 1777650885 | 16.11° C | 66% | 1016.2 hPa | - | - | - | - |
| 1777649685 | 16.67° C | 64% | 1016.1 hPa | - | - | - | - |
| 1777648485 | 18.89° C | 56% | 1016.4 hPa | - | - | - | - |
| 1777647285 | 15.56° C | 69% | 1016.5 hPa | - | - | - | - |
| 1777646084 | 15.56° C | 69% | 1016.7 hPa | - | - | - | - |
| 1777644884 | 15.56° C | 69% | 1016.8 hPa | - | - | - | - |
| 1777643683 | 15.56° C | 69% | 1016.6 hPa | - | - | - | - |
| 1777642483 | 15.56° C | 69% | 1016.9 hPa | - | - | - | - |
| 1777641283 | 16.11° C | 69% | 1017.1 hPa | - | - | - | - |
| 1777640083 | 16.11° C | 69% | 1017.3 hPa | - | - | - | - |
| 1777638885 | 15.56° C | 69% | 1017.3 hPa | - | - | - | - |
| 1777637682 | 15.56° C | 69% | 1017.4 hPa | - | - | - | - |
| 1777636481 | 15.56° C | 70% | 1017.4 hPa | - | - | - | - |
| 1777635281 | 15.56° C | 70% | 1017.4 hPa | - | - | - | - |
| 1777634081 | 16.11° C | 71% | 1017.7 hPa | - | - | - | - |
| 1777632880 | 16.11° C | 68% | 1017.8 hPa | - | - | - | - |
| 1777631680 | 15.56° C | 63% | 1017.4 hPa | - | - | - | - |
| 1777630480 | 16.11° C | 61% | 1017.6 hPa | - | - | - | - |
| 1777629279 | 16.11° C | 64% | 1017.5 hPa | - | - | - | - |
| 1777628079 | 16.11° C | 64% | 1017.5 hPa | - | - | - | - |
| 1777626879 | 17.78° C | 60% | 1017.2 hPa | - | - | - | - |
| 1777625679 | 16.67° C | 67% | 1018.3 hPa | - | - | - | - |
| 1777624478 | 15.56° C | 64% | 1018 hPa | - | - | - | - |
| 1777623278 | 15.56° C | 66% | 1018 hPa | - | - | - | - |
* Rain since midnight (hover to see other rain measurements)
** Current wind speed in m/s (hover to see current wind gust speed)